Time;durP1;ratioP1;P1;durP2;ratioP2;P2;SDS_P1;SDS_P2;PMS_P1;PMS_P2;Temp;Humidity;BMP_temperature;BMP_pressure;BME280_temperature;BME280_humidity;BME280_pressure;Samples;Min_cycle;Max_cycle;Signal;HPM_P1;HPM_P2
2021/11/01 00:00:13;;;;;;;4.53;1.40;;;15.10;91.80;;;;;;5012479;28;20045;-76
2021/11/01 00:02:40;;;;;;;5.53;1.30;;;15.10;91.80;;;;;;5012795;28;20014;-75
2021/11/01 00:05:06;;;;;;;6.50;1.50;;;15.10;91.70;;;;;;5013898;28;20018;-74
2021/11/01 00:07:32;;;;;;;6.70;1.30;;;15.10;91.80;;;;;;5012779;28;20525;-76
2021/11/01 00:09:58;;;;;;;6.13;1.60;;;15.10;91.90;;;;;;5013814;28;20018;-75
2021/11/01 00:12:28;;;;;;;4.70;1.20;;;15.10;91.80;;;;;;5012756;28;20022;-77
2021/11/01 00:14:54;;;;;;;7.00;1.55;;;15.10;91.80;;;;;;5013970;28;20053;-77
2021/11/01 00:17:20;;;;;;;6.07;1.33;;;15.10;91.80;;;;;;5013532;28;20058;-77
2021/11/01 00:19:45;;;;;;;4.85;1.40;;;15.10;92.00;;;;;;5012388;28;20041;-77
2021/11/01 00:22:11;;;;;;;6.80;1.70;;;15.10;91.80;;;;;;5012537;28;20022;-76
2021/11/01 00:24:37;;;;;;;5.47;1.42;;;15.10;91.80;;;;;;5013585;28;20021;-77
2021/11/01 00:27:02;;;;;;;3.53;1.30;;;15.10;91.70;;;;;;5013482;28;20022;-76
2021/11/01 00:29:28;;;;;;;7.72;1.80;;;15.10;91.70;;;;;;5013443;28;20029;-76
2021/11/01 00:31:53;;;;;;;6.78;1.88;;;15.10;91.80;;;;;;5012273;28;20030;-77
2021/11/01 00:34:20;;;;;;;5.43;1.45;;;15.10;91.60;;;;;;5013452;28;20360;-77
2021/11/01 00:36:45;;;;;;;5.90;1.75;;;15.10;91.60;;;;;;5012789;28;20068;-76
2021/11/01 00:39:11;;;;;;;5.68;1.60;;;15.10;91.70;;;;;;5012139;28;20022;-75
2021/11/01 00:41:37;;;;;;;5.13;1.50;;;15.10;91.70;;;;;;5012323;28;20025;-75
2021/11/01 00:44:03;;;;;;;7.45;1.92;;;15.10;91.70;;;;;;5013214;28;20375;-77
2021/11/01 00:46:29;;;;;;;5.82;1.70;;;15.10;91.70;;;;;;5011976;28;20030;-77
2021/11/01 00:48:54;;;;;;;4.70;1.40;;;15.10;91.70;;;;;;5013253;28;20032;-77
2021/11/01 00:51:21;;;;;;;4.68;1.15;;;15.10;91.60;;;;;;5013271;28;20018;-77
2021/11/01 00:53:50;;;;;;;5.95;1.45;;;15.10;91.60;;;;;;5013143;28;20034;-76
2021/11/01 00:56:16;;;;;;;4.05;1.27;;;15.10;91.60;;;;;;5011732;28;20479;-76
2021/11/01 00:58:42;;;;;;;4.95;1.33;;;15.10;91.60;;;;;;5012698;28;20464;-76
2021/11/01 01:01:09;;;;;;;6.00;2.00;;;15.10;91.60;;;;;;5011917;28;20022;-77
2021/11/01 01:03:35;;;;;;;5.75;1.48;;;15.10;91.60;;;;;;5010602;28;20018;-77
2021/11/01 01:06:02;;;;;;;5.38;1.65;;;15.10;91.50;;;;;;5011625;28;20026;-75
2021/11/01 01:08:29;;;;;;;4.47;1.42;;;15.10;91.50;;;;;;5011632;28;20022;-77
2021/11/01 01:10:55;;;;;;;5.68;2.05;;;15.10;91.50;;;;;;5011784;28;20068;-75
2021/11/01 01:13:23;;;;;;;7.57;1.80;;;15.10;91.50;;;;;;5011701;28;20057;-76
2021/11/01 01:16:04;;;;;;;6.53;1.98;;;15.10;91.50;;;;;;5011442;28;20036;-75
2021/11/01 01:18:34;;;;;;;8.40;1.92;;;15.10;91.40;;;;;;5012702;28;20034;-76
2021/11/01 01:21:11;;;;;;;8.25;2.05;;;15.10;91.40;;;;;;5011665;28;20018;-76
2021/11/01 01:23:37;;;;;;;4.88;1.42;;;15.10;91.40;;;;;;5011600;28;20017;-76
2021/11/01 01:26:02;;;;;;;8.25;2.28;;;15.10;91.40;;;;;;5012617;28;20029;-76
2021/11/01 01:28:28;;;;;;;5.75;1.65;;;15.10;91.40;;;;;;5011539;28;20042;-76
2021/11/01 01:30:56;;;;;;;7.30;1.85;;;15.10;91.60;;;;;;5011631;28;20064;-76
2021/11/01 01:33:21;;;;;;;5.32;1.33;;;15.10;91.30;;;;;;5012730;28;20014;-74
2021/11/01 01:35:47;;;;;;;4.47;1.65;;;15.10;91.30;;;;;;5012387;28;20120;-75
2021/11/01 01:38:13;;;;;;;5.60;1.55;;;15.10;91.30;;;;;;5012678;28;20109;-76
2021/11/01 01:40:40;;;;;;;6.78;2.08;;;15.10;91.20;;;;;;5012733;28;20014;-76
2021/11/01 01:43:06;;;;;;;4.88;1.52;;;15.10;91.20;;;;;;5011475;28;20042;-75
2021/11/01 01:45:33;;;;;;;9.90;1.90;;;15.10;91.20;;;;;;5011199;28;20022;-76
2021/11/01 01:47:59;;;;;;;5.70;1.70;;;15.20;91.20;;;;;;5012502;28;20018;-77
2021/11/01 01:50:26;;;;;;;7.43;1.80;;;15.10;91.20;;;;;;5016482;28;20013;-77
2021/11/01 01:52:53;;;;;;;5.75;1.65;;;15.10;91.10;;;;;;5015247;28;20087;-76
2021/11/01 01:55:20;;;;;;;6.57;1.92;;;15.10;91.10;;;;;;5016156;28;20048;-77
2021/11/01 01:57:48;;;;;;;7.82;2.00;;;15.10;91.10;;;;;;5016303;28;20022;-77
2021/11/01 02:00:31;;;;;;;6.53;1.88;;;15.10;91.10;;;;;;5016034;28;20366;-75
2021/11/01 02:02:57;;;;;;;7.22;2.00;;;15.10;91.10;;;;;;5015183;28;20033;-75
2021/11/01 02:05:25;;;;;;;6.97;2.28;;;15.10;91.10;;;;;;5016134;28;20022;-77
2021/11/01 02:07:58;;;;;;;5.70;2.10;;;15.20;91.10;;;;;;5014892;28;20029;-75
2021/11/01 02:10:31;;;;;;;9.68;2.47;;;15.10;91.10;;;;;;5014994;28;20386;-77
2021/11/01 02:13:05;;;;;;;6.20;1.90;;;15.10;91.10;;;;;;5014926;28;20025;-76
2021/11/01 02:15:36;;;;;;;6.07;1.85;;;15.10;91.10;;;;;;5015863;28;20018;-76
2021/11/01 02:18:02;;;;;;;5.88;1.75;;;15.10;91.20;;;;;;5014687;28;20022;-76
2021/11/01 02:20:41;;;;;;;6.18;1.80;;;15.10;91.10;;;;;;5014748;28;20030;-75
2021/11/01 02:23:26;;;;;;;5.75;1.73;;;15.00;91.10;;;;;;5014741;28;20013;-75
2021/11/01 02:25:53;;;;;;;8.25;1.98;;;15.00;91.10;;;;;;5014505;28;20386;-77
2021/11/01 02:28:22;;;;;;;8.45;1.98;;;15.00;91.10;;;;;;5015721;28;20109;-76
2021/11/01 02:30:50;;;;;;;6.68;1.65;;;15.00;91.10;;;;;;5014664;28;20374;-75
2021/11/01 02:33:16;;;;;;;9.43;2.08;;;15.00;91.20;;;;;;5014671;28;20029;-76
2021/11/01 02:35:43;;;;;;;6.22;1.58;;;15.00;91.10;;;;;;5014226;28;20112;-75
2021/11/01 02:38:16;;;;;;;6.75;1.77;;;15.00;91.20;;;;;;5015571;28;20018;-75
2021/11/01 02:40:42;;;;;;;6.03;1.95;;;15.00;91.20;;;;;;5014458;28;20464;-76
2021/11/01 02:43:08;;;;;;;6.22;1.60;;;15.00;91.10;;;;;;5014320;28;20481;-75
2021/11/01 02:45:35;;;;;;;6.13;1.60;;;15.00;91.10;;;;;;5014097;28;20049;-76
2021/11/01 02:48:01;;;;;;;5.40;1.85;;;15.00;91.10;;;;;;5015441;28;20018;-76
2021/11/01 02:50:27;;;;;;;8.65;2.15;;;15.00;91.20;;;;;;5014287;28;20018;-76
2021/11/01 02:52:53;;;;;;;6.75;1.92;;;15.00;91.20;;;;;;5014204;28;20022;-76
2021/11/01 02:55:20;;;;;;;6.43;1.83;;;15.00;91.10;;;;;;5013896;28;20024;-77
2021/11/01 02:57:46;;;;;;;5.80;1.88;;;15.00;91.20;;;;;;5013966;28;20024;-75
2021/11/01 03:00:13;;;;;;;7.97;2.20;;;15.00;91.20;;;;;;5013829;28;20013;-76
2021/11/01 03:02:39;;;;;;;7.00;1.73;;;15.00;91.10;;;;;;5015316;28;20022;-75
2021/11/01 03:05:11;;;;;;;10.40;2.05;;;15.00;91.10;;;;;;5013876;28;20049;-76
2021/11/01 03:07:40;;;;;;;7.22;1.85;;;15.00;91.10;;;;;;5013867;28;20060;-77
2021/11/01 03:10:06;;;;;;;10.15;2.40;;;15.00;91.00;;;;;;5013898;28;20025;-76
2021/11/01 03:12:32;;;;;;;8.38;1.88;;;15.00;91.00;;;;;;5013702;28;20025;-75
2021/11/01 03:15:01;;;;;;;8.00;1.98;;;15.00;91.00;;;;;;5014949;28;20030;-76
2021/11/01 03:17:29;;;;;;;8.20;1.88;;;15.00;91.00;;;;;;5013441;28;20537;-78
2021/11/01 03:20:30;;;;;;;6.82;1.77;;;15.00;90.90;;;;;;5013438;28;20116;-75
2021/11/01 03:22:58;;;;;;;6.30;1.88;;;15.00;90.90;;;;;;5011455;28;20029;-75
2021/11/01 03:25:30;;;;;;;6.38;1.70;;;15.00;91.00;;;;;;5014576;28;20105;-76
2021/11/01 03:27:58;;;;;;;7.35;1.67;;;15.00;90.90;;;;;;5014675;28;20026;-76
2021/11/01 03:30:24;;;;;;;6.35;2.00;;;15.00;91.00;;;;;;5013489;28;20049;-76
2021/11/01 03:32:51;;;;;;;7.00;1.83;;;15.00;90.80;;;;;;5013385;28;20029;-76
2021/11/01 03:35:19;;;;;;;9.02;2.00;;;15.00;90.80;;;;;;5013078;28;20022;-75
2021/11/01 03:37:45;;;;;;;6.93;1.60;;;14.90;90.70;;;;;;5013311;28;20022;-76
2021/11/01 03:40:17;;;;;;;6.38;1.70;;;15.00;90.90;;;;;;5013121;28;20022;-76
2021/11/01 03:42:43;;;;;;;;;;;15.00;90.90;;;;;;5014966;28;20105;-77
2021/11/01 03:45:10;;;;;;;5.22;1.60;;;14.90;90.80;;;;;;5014320;28;19943;-79
2021/11/01 03:47:42;;;;;;;8.27;2.25;;;14.90;90.70;;;;;;5014266;28;20113;-74
2021/11/01 03:51:11;;;;;;;7.13;1.67;;;15.00;90.80;;;;;;5011194;28;20386;-76
2021/11/01 03:53:04;;;;;;;8.13;2.08;;;15.00;90.80;;;;;;4993826;28;20084;-77
2021/11/01 03:55:30;;;;;;;7.22;1.67;;;14.90;90.80;;;;;;4994371;28;20076;-77
2021/11/01 03:57:57;;;;;;;8.18;1.92;;;14.90;90.80;;;;;;4994544;28;20010;-77
2021/11/01 04:00:26;;;;;;;6.60;1.65;;;15.00;90.80;;;;;;4992903;28;20029;-77
2021/11/01 04:05:20;;;;;;;8.43;1.63;;;15.00;90.70;;;;;;5070960;28;20063;-78
2021/11/01 04:07:46;;;;;;;7.30;1.67;;;14.90;90.80;;;;;;5055519;28;20028;-78
2021/11/01 04:10:12;;;;;;;7.30;1.60;;;15.00;90.70;;;;;;5073103;28;20032;-77
2021/11/01 04:12:37;;;;;;;5.60;1.60;;;14.90;90.70;;;;;;5073741;28;20020;-77
2021/11/01 04:15:11;;;;;;;7.45;1.73;;;14.90;90.70;;;;;;5073558;28;20354;-78
2021/11/01 04:17:46;;;;;;;6.93;1.92;;;15.00;90.70;;;;;;5055633;28;20473;-77
2021/11/01 04:22:50;;;;;;;6.05;1.70;;;14.90;90.60;;;;;;5073659;28;20465;-78
2021/11/01 04:25:16;;;;;;;9.65;1.70;;;14.90;90.50;;;;;;5055425;28;20500;-78
2021/11/01 04:27:42;;;;;;;5.85;1.40;;;15.00;90.50;;;;;;5073470;28;20478;-78
2021/11/01 04:30:08;;;;;;;7.18;1.70;;;15.00;90.40;;;;;;5055642;28;20035;-78
2021/11/01 04:32:37;;;;;;;5.30;1.63;;;15.00;90.40;;;;;;5055510;28;20385;-77
2021/11/01 04:35:14;;;;;;;6.22;1.70;;;15.00;90.40;;;;;;5055358;28;20107;-77
2021/11/01 04:37:43;;;;;;;7.32;1.90;;;15.00;90.30;;;;;;5055226;28;20021;-78
2021/11/01 04:53:30;;;;;;;7.55;1.90;;;15.00;90.20;;;;;;5073281;28;20122;-78
2021/11/01 04:55:56;;;;;;;6.82;1.60;;;15.00;90.20;;;;;;5054749;28;20024;-77
2021/11/01 04:58:23;;;;;;;5.40;1.70;;;15.00;90.20;;;;;;5054657;28;20021;-78
2021/11/01 05:00:50;;;;;;;6.13;1.67;;;15.00;90.30;;;;;;5072875;28;20535;-78
2021/11/01 05:05:47;;;;;;;7.35;1.63;;;15.00;90.60;;;;;;5072831;28;20028;-78
2021/11/01 05:08:15;;;;;;;6.72;1.52;;;14.90;90.30;;;;;;5054806;28;20027;-78
2021/11/01 05:10:43;;;;;;;7.25;1.75;;;14.90;90.50;;;;;;5054956;28;20017;-77
2021/11/01 05:13:22;;;;;;;8.13;1.70;;;14.90;90.20;;;;;;5054810;28;20028;-78
2021/11/01 05:15:51;;;;;;;7.45;2.08;;;14.90;90.20;;;;;;5072507;28;20013;-77
2021/11/01 05:18:25;;;;;;;8.23;1.88;;;14.90;90.30;;;;;;5054749;28;20016;-78
2021/11/01 05:21:08;;;;;;;6.63;1.63;;;14.90;90.30;;;;;;5054804;28;20020;-78
2021/11/01 05:23:38;;;;;;;6.28;1.42;;;14.90;90.30;;;;;;5054715;28;20016;-77
2021/11/01 05:26:16;;;;;;;6.63;1.63;;;14.90;90.20;;;;;;5054806;28;20025;-77
2021/11/01 05:29:03;;;;;;;6.38;1.50;;;14.90;90.10;;;;;;5054898;28;20112;-77
2021/11/01 05:31:30;;;;;;;6.53;1.42;;;14.90;90.20;;;;;;5072595;28;20500;-77
2021/11/01 05:34:08;;;;;;;5.00;1.30;;;14.90;90.20;;;;;;5072624;28;20046;-77
2021/11/01 05:36:35;;;;;;;7.28;1.75;;;14.90;90.10;;;;;;5072314;28;20454;-78
2021/11/01 05:39:00;;;;;;;6.55;1.70;;;14.90;90.20;;;;;;5054730;28;20017;-78
2021/11/01 05:41:26;;;;;;;6.78;1.73;;;14.90;90.20;;;;;;5054725;28;20377;-78
2021/11/01 05:43:51;;;;;;;6.43;1.90;;;14.90;90.20;;;;;;5054609;28;20111;-78
2021/11/01 05:46:18;;;;;;;6.00;1.50;;;14.90;90.20;;;;;;5054565;28;20027;-78
2021/11/01 05:48:49;;;;;;;8.63;1.83;;;14.90;90.00;;;;;;5053564;28;20028;-78
2021/11/01 05:51:17;;;;;;;6.60;1.77;;;14.90;90.10;;;;;;5054459;28;20511;-77
2021/11/01 05:53:46;;;;;;;5.20;1.48;;;14.90;89.90;;;;;;5054646;28;20496;-78
2021/11/01 05:59:09;;;;;;;5.93;1.60;;;14.90;90.10;;;;;;5072311;28;20017;-78
2021/11/01 06:04:34;;;;;;;8.23;1.90;;;14.90;90.00;;;;;;5072402;28;20025;-78
2021/11/01 06:07:27;;;;;;;6.45;1.65;;;14.90;90.00;;;;;;5071539;28;20032;-78
2021/11/01 06:14:51;;;;;;;7.00;1.67;;;14.90;89.80;;;;;;5072523;28;20051;-78
2021/11/01 06:17:17;;;;;;;3.42;1.10;;;14.90;89.80;;;;;;5054258;28;20016;-78
2021/11/01 06:19:43;;;;;;;9.00;2.00;;;14.90;89.60;;;;;;5054379;28;20377;-78
2021/11/01 06:22:08;;;;;;;6.25;1.42;;;14.90;89.80;;;;;;5054376;28;20067;-78
2021/11/01 06:24:54;;;;;;;5.90;1.80;;;14.90;89.80;;;;;;5054230;28;20031;-78
2021/11/01 06:27:22;;;;;;;13.25;1.80;;;14.90;89.70;;;;;;5054044;28;20595;-78
2021/11/01 07:14:54;;;;;;;9.10;1.70;;;14.90;88.40;;;;;;5053166;28;20081;-77
2021/11/01 08:17:43;;;;;;;5.70;1.33;;;15.30;86.70;;;;;;5071318;28;20043;-79
2021/11/01 08:23:17;;;;;;;7.38;1.70;;;15.40;86.30;;;;;;5070284;28;20039;-81
2021/11/01 08:39:26;;;;;;;5.45;1.38;;;15.70;85.50;;;;;;5073735;28;20095;-79
2021/11/01 09:19:52;;;;;;;8.60;2.00;;;16.00;83.80;;;;;;4990881;28;20061;-80
2021/11/01 09:24:50;;;;;;;7.78;1.50;;;15.80;83.90;;;;;;5034844;28;20501;-80
2021/11/01 09:27:20;;;;;;;6.55;1.20;;;15.70;84.10;;;;;;5054266;28;20051;-80
2021/11/01 09:42:53;;;;;;;5.90;1.50;;;15.60;84.00;;;;;;5072430;28;20104;-80
2021/11/01 09:45:21;;;;;;;6.50;1.73;;;15.60;84.00;;;;;;5071607;28;20040;-80
2021/11/01 09:47:47;;;;;;;4.60;1.30;;;15.60;84.00;;;;;;5072035;28;20028;-80
2021/11/01 09:50:17;;;;;;;4.65;1.33;;;15.60;84.30;;;;;;5072092;28;20040;-80
2021/11/01 09:52:44;;;;;;;5.15;1.63;;;15.60;84.20;;;;;;5054080;28;20499;-80
2021/11/01 09:55:46;;;;;;;6.15;1.52;;;15.50;84.10;;;;;;5053842;28;20025;-79
2021/11/01 10:00:56;;;;;;;4.38;1.00;;;15.50;84.20;;;;;;5072400;28;20035;-79
2021/11/01 10:05:57;;;;;;;7.50;1.70;;;15.60;83.90;;;;;;5123135;22;20056;-76
2021/11/01 10:08:24;;;;;;;5.05;1.13;;;15.70;83.70;;;;;;5070616;28;20032;-76
2021/11/01 10:10:50;;;;;;;5.40;1.23;;;15.60;83.60;;;;;;5074420;28;20027;-77
2021/11/01 10:13:16;;;;;;;4.50;1.17;;;15.70;83.40;;;;;;5074570;28;20016;-76
2021/11/01 10:18:28;;;;;;;8.55;1.52;;;15.70;83.40;;;;;;5075726;28;20151;-76
2021/11/01 10:20:56;;;;;;;8.82;1.38;;;15.70;83.50;;;;;;5075892;28;20541;-76
2021/11/01 10:23:23;;;;;;;6.45;1.40;;;15.80;83.30;;;;;;5075734;28;20036;-76
2021/11/01 10:26:03;;;;;;;5.65;1.33;;;15.80;83.40;;;;;;5074193;28;20401;-78
2021/11/01 10:28:31;;;;;;;5.40;1.15;;;15.80;83.20;;;;;;5075065;28;20035;-76
2021/11/01 10:31:07;;;;;;;5.97;1.60;;;15.80;83.10;;;;;;5074976;28;20057;-76
2021/11/01 10:33:34;;;;;;;4.75;1.42;;;15.80;83.20;;;;;;5073755;28;20027;-77
2021/11/01 10:36:00;;;;;;;5.15;1.30;;;15.80;83.20;;;;;;5073422;28;20025;-76
2021/11/01 10:38:34;;;;;;;4.30;1.10;;;15.80;83.00;;;;;;5073617;28;20074;-76
2021/11/01 11:13:49;;;;;;;11.18;1.48;;;16.00;82.60;;;;;;5074266;28;20021;-77
2021/11/01 11:21:57;;;;;;;12.80;1.83;;;16.00;82.60;;;;;;5074478;28;20531;-77
2021/11/01 11:26:56;;;;;;;27.08;3.03;;;15.90;83.00;;;;;;5074536;28;20060;-76
2021/11/01 11:37:45;;;;;;;31.98;3.40;;;16.00;83.00;;;;;;5052608;28;20036;-78
2021/11/01 11:49:02;;;;;;;15.45;2.28;;;16.10;82.90;;;;;;5074294;28;20105;-76
2021/11/01 11:51:28;;;;;;;12.23;2.15;;;16.10;82.80;;;;;;5072874;28;20127;-76
2021/11/01 11:53:57;;;;;;;17.45;2.30;;;16.10;82.70;;;;;;5073945;28;20101;-76
2021/11/01 11:56:32;;;;;;;11.35;1.95;;;16.10;82.70;;;;;;5073653;28;20776;-75
2021/11/01 11:59:03;;;;;;;17.95;2.17;;;16.10;82.90;;;;;;5072646;28;20493;-75
2021/11/01 12:01:30;;;;;;;;;;;16.10;83.00;;;;;;5073060;28;20020;-74
2021/11/01 12:04:04;;;;;;;14.80;2.50;;;16.10;82.60;;;;;;5073575;28;19991;-76
2021/11/01 12:07:00;;;;;;;9.07;1.75;;;16.20;82.50;;;;;;5073498;28;20020;-75
2021/11/01 12:09:40;;;;;;;8.30;1.75;;;16.20;82.20;;;;;;5072404;28;20104;-76
2021/11/01 12:17:30;;;;;;;10.82;2.00;;;16.30;81.40;;;;;;5073316;28;20025;-78
2021/11/01 12:20:01;;;;;;;9.68;1.95;;;16.40;81.50;;;;;;5072534;28;20078;-76
2021/11/01 12:22:32;;;;;;;12.07;1.90;;;16.30;81.20;;;;;;5071849;28;20482;-76
2021/11/01 12:25:00;;;;;;;7.85;1.50;;;16.30;81.20;;;;;;5071709;28;20113;-75
2021/11/01 12:27:26;;;;;;;6.60;1.50;;;16.30;80.70;;;;;;5069203;28;20436;-78
2021/11/01 12:29:52;;;;;;;7.38;1.40;;;16.20;80.50;;;;;;5069487;28;20501;-75
2021/11/01 12:32:19;;;;;;;6.47;1.40;;;16.20;80.80;;;;;;5070426;28;20032;-76
2021/11/01 12:34:57;;;;;;;6.80;1.67;;;16.10;81.00;;;;;;5069635;28;20036;-75
2021/11/01 12:37:43;;;;;;;10.82;1.80;;;16.10;81.50;;;;;;5069238;28;20390;-76
2021/11/01 12:40:30;;;;;;;7.32;1.40;;;16.20;81.50;;;;;;5070172;28;20094;-77
2021/11/01 12:49:07;;;;;;;7.25;1.60;;;16.10;81.50;;;;;;5072651;28;20031;-76
2021/11/01 12:57:01;;;;;;;6.22;1.40;;;16.10;82.00;;;;;;5072120;28;20036;-75
2021/11/01 12:59:46;;;;;;;5.18;1.30;;;16.00;82.30;;;;;;5071407;28;20044;-75
2021/11/01 13:02:16;;;;;;;4.95;1.30;;;16.00;82.50;;;;;;5071572;28;20643;-75
2021/11/01 13:04:48;;;;;;;5.23;1.20;;;16.00;82.60;;;;;;5072724;28;20032;-76
2021/11/01 13:07:32;;;;;;;6.03;1.58;;;16.00;82.70;;;;;;5072325;28;20033;-76
2021/11/01 13:10:08;;;;;;;7.43;1.65;;;15.90;81.90;;;;;;5072165;28;20024;-77
2021/11/01 13:18:08;;;;;;;5.72;1.63;;;15.80;82.90;;;;;;5072103;28;20111;-75
2021/11/01 13:20:48;;;;;;;5.13;1.75;;;15.80;83.00;;;;;;5070683;28;20017;-75
2021/11/01 13:23:15;;;;;;;5.10;1.20;;;15.80;83.20;;;;;;5071923;28;20363;-75
2021/11/01 13:25:49;;;;;;;3.92;1.27;;;15.80;83.20;;;;;;5070373;28;20050;-78
2021/11/01 13:36:51;;;;;;;7.80;1.70;;;15.80;84.00;;;;;;5071506;28;20031;-77
2021/11/01 13:39:25;;;;;;;4.18;1.35;;;15.70;84.10;;;;;;5070326;28;20500;-73
2021/11/01 13:41:51;;;;;;;4.13;1.13;;;15.70;84.10;;;;;;5070528;28;20099;-75
2021/11/01 13:44:25;;;;;;;4.95;1.30;;;15.70;84.10;;;;;;5072283;28;20078;-75
2021/11/01 13:47:00;;;;;;;5.30;1.30;;;15.70;84.30;;;;;;5074327;28;20024;-76
2021/11/01 13:49:31;;;;;;;7.95;1.33;;;15.70;84.80;;;;;;5075737;28;20431;-77
2021/11/01 13:52:10;;;;;;;4.05;1.20;;;15.70;84.20;;;;;;5075521;28;20028;-76
2021/11/01 13:54:49;;;;;;;3.92;1.10;;;15.70;84.20;;;;;;5074448;28;20060;-76
2021/11/01 13:57:16;;;;;;;5.60;1.13;;;15.70;84.20;;;;;;5075429;28;20024;-76
2021/11/01 13:59:53;;;;;;;4.95;1.50;;;15.70;84.20;;;;;;5075587;28;20021;-76
2021/11/01 14:13:17;;;;;;;6.20;1.67;;;15.70;84.40;;;;;;5075561;28;20108;-76
2021/11/01 14:54:59;;;;;;;4.50;1.30;;;15.60;84.90;;;;;;5074537;28;20456;-76
2021/11/01 15:10:03;;;;;;;3.92;1.08;;;15.70;84.20;;;;;;5074533;28;20055;-78
2021/11/01 15:15:39;;;;;;;4.80;1.20;;;15.60;84.20;;;;;;5074177;28;20077;-76
2021/11/01 15:26:03;;;;;;;4.35;1.40;;;15.60;84.30;;;;;;5074001;28;20078;-76
2021/11/01 15:28:45;;;;;;;3.28;0.93;;;15.50;84.50;;;;;;5073974;28;20099;-75
2021/11/01 16:20:01;;;;;;;2.10;0.98;;;15.30;85.30;;;;;;5073432;28;20024;-79
2021/11/01 16:22:28;;;;;;;3.72;1.20;;;15.30;85.20;;;;;;5071757;28;20229;-78
2021/11/01 16:24:54;;;;;;;3.13;1.10;;;15.30;85.30;;;;;;5072704;28;20021;-80
2021/11/01 16:27:21;;;;;;;3.35;1.10;;;15.30;85.20;;;;;;5073321;28;20032;-80
2021/11/01 16:30:10;;;;;;;2.25;1.00;;;15.30;85.20;;;;;;5073190;28;20103;-78
2021/11/01 16:32:42;;;;;;;3.38;1.10;;;15.30;85.20;;;;;;5071111;28;20025;-76
2021/11/01 16:35:09;;;;;;;2.15;0.90;;;15.30;85.20;;;;;;5068118;28;20028;-78
2021/11/01 16:37:39;;;;;;;2.17;0.90;;;15.30;84.90;;;;;;5071125;28;20429;-81
2021/11/01 16:40:08;;;;;;;3.67;1.13;;;15.30;85.10;;;;;;5071786;28;20078;-79
2021/11/01 16:42:36;;;;;;;4.18;1.00;;;15.30;84.80;;;;;;5072713;28;20019;-80
2021/11/01 16:45:15;;;;;;;5.88;1.10;;;15.20;84.90;;;;;;5071340;28;20505;-79
2021/11/01 16:47:43;;;;;;;3.03;0.98;;;15.30;84.70;;;;;;5071194;28;20032;-79
2021/11/01 16:50:11;;;;;;;5.88;1.48;;;15.20;84.80;;;;;;5071248;28;20028;-80
2021/11/01 16:52:38;;;;;;;2.92;1.08;;;15.20;84.70;;;;;;5071202;28;20060;-79
2021/11/01 16:55:10;;;;;;;4.72;1.10;;;15.20;84.70;;;;;;5071335;28;20119;-80
2021/11/01 16:57:44;;;;;;;4.47;1.10;;;15.20;84.70;;;;;;5072496;28;20020;-79
2021/11/01 17:02:46;;;;;;;4.97;1.10;;;15.20;84.60;;;;;;5072909;28;20032;-80
2021/11/01 17:05:20;;;;;;;6.55;1.50;;;15.20;84.40;;;;;;5070700;28;20037;-79
2021/11/01 17:10:51;;;;;;;7.38;1.83;;;15.20;78.70;;;;;;5072491;28;20039;-81
2021/11/01 17:35:25;;;;;;;5.20;1.05;;;15.20;80.70;;;;;;5071975;28;20070;-81
2021/11/01 18:38:55;;;;;;;4.03;1.05;;;15.10;82.80;;;;;;5075787;28;20086;-80
2021/11/01 18:41:24;;;;;;;3.85;1.30;;;15.10;83.00;;;;;;5075211;28;20027;-78
2021/11/01 18:52:09;;;;;;;6.55;1.90;;;15.00;78.00;;;;;;5033134;28;20140;-79
2021/11/01 18:54:38;;;;;;;4.05;1.35;;;15.00;78.90;;;;;;5032900;28;20482;-82
2021/11/01 18:57:04;;;;;;;4.05;1.40;;;15.00;79.50;;;;;;5054101;28;20441;-79
2021/11/01 18:59:35;;;;;;;3.90;1.35;;;15.00;80.10;;;;;;5074017;28;20036;-80
2021/11/01 19:02:41;;;;;;;5.67;1.70;;;15.00;80.30;;;;;;5073937;28;20481;-79
2021/11/01 19:07:46;;;;;;;4.25;1.33;;;15.00;81.10;;;;;;5055417;28;20391;-80
2021/11/01 19:10:47;;;;;;;3.75;1.40;;;15.00;81.30;;;;;;5055122;28;20059;-80
2021/11/01 19:16:50;;;;;;;3.53;1.20;;;15.00;81.60;;;;;;5055005;28;20060;-81
2021/11/01 20:05:52;;;;;;;4.25;1.40;;;15.00;81.90;;;;;;5073643;28;20028;-80
2021/11/01 20:14:21;;;;;;;4.05;1.48;;;15.00;81.60;;;;;;5069675;28;20024;-80
2021/11/01 21:24:29;;;;;;;4.40;1.55;;;15.00;81.10;;;;;;5077453;28;20028;-81
2021/11/01 21:26:59;;;;;;;4.75;1.65;;;14.90;81.50;;;;;;5072643;28;20035;-78
2021/11/01 21:29:33;;;;;;;3.47;1.40;;;14.90;81.40;;;;;;5071047;28;20695;-78
2021/11/01 21:31:59;;;;;;;3.85;1.40;;;14.90;81.40;;;;;;5071637;28;20060;-79
2021/11/01 21:34:31;;;;;;;4.53;1.77;;;14.90;81.40;;;;;;5071520;28;20087;-78
2021/11/01 21:36:57;;;;;;;6.97;1.75;;;14.80;76.00;;;;;;5074897;28;20113;-81
2021/11/01 21:39:23;;;;;;;5.35;2.10;;;14.80;75.20;;;;;;5091523;28;20115;-80
2021/11/01 21:41:49;;;;;;;6.80;1.67;;;14.70;75.60;;;;;;5092697;28;20141;-81
2021/11/01 21:44:14;;;;;;;5.72;1.70;;;14.70;76.40;;;;;;5091641;28;20020;-80
2021/11/01 21:46:40;;;;;;;7.18;1.92;;;14.80;77.10;;;;;;5081701;28;20041;-80
2021/11/01 21:49:05;;;;;;;5.78;1.40;;;14.80;77.70;;;;;;5078195;28;20027;-80
2021/11/01 21:51:37;;;;;;;4.88;1.73;;;14.80;78.10;;;;;;5078856;28;20025;-81
2021/11/01 21:57:15;;;;;;;3.83;1.40;;;14.80;78.80;;;;;;5029700;28;20582;-80
2021/11/01 22:19:36;;;;;;;4.22;1.30;;;14.80;79.80;;;;;;5049182;28;20110;-76
2021/11/01 22:22:20;;;;;;;4.38;1.50;;;14.80;79.90;;;;;;5055595;28;20028;-77
2021/11/01 22:25:05;;;;;;;5.90;1.88;;;14.90;80.00;;;;;;5055632;28;20039;-75
2021/11/01 22:41:16;;;;;;;3.58;1.40;;;14.80;80.30;;;;;;5055765;28;20021;-76
2021/11/01 22:55:36;;;;;;;4.40;1.50;;;14.90;80.10;;;;;;5055203;28;20036;-76
2021/11/01 22:56:54;;;;;;;5.80;1.50;;;14.90;80.30;;;;;;5054709;28;20028;-77
2021/11/01 22:59:19;;;;;;;3.40;1.35;;;14.90;80.30;;;;;;5053859;28;20017;-76
2021/11/01 23:01:47;;;;;;;3.67;1.40;;;14.90;80.50;;;;;;5053684;28;20021;-76
2021/11/01 23:31:32;;;;;;;7.18;1.90;;;14.90;80.90;;;;;;5054477;28;20114;-76
2021/11/01 23:34:00;;;;;;;4.07;1.60;;;14.90;80.90;;;;;;5053318;28;20025;-75
2021/11/01 23:36:26;;;;;;;3.67;1.20;;;14.90;81.10;;;;;;5052798;28;20056;-76
2021/11/01 23:38:51;;;;;;;5.00;1.65;;;14.90;81.10;;;;;;5053206;28;20022;-76
2021/11/01 23:41:18;;;;;;;4.90;1.50;;;14.90;81.20;;;;;;5052999;28;20021;-75
2021/11/01 23:43:46;;;;;;;5.00;1.83;;;14.80;81.10;;;;;;5053058;28;20013;-76
2021/11/01 23:46:11;;;;;;;5.55;1.73;;;14.80;81.10;;;;;;5052702;28;20546;-76
2021/11/01 23:48:37;;;;;;;4.75;1.40;;;14.80;81.20;;;;;;5052986;28;20115;-76
2021/11/01 23:51:02;;;;;;;4.30;1.55;;;14.80;81.20;;;;;;5052966;28;20017;-76
2021/11/01 23:53:38;;;;;;;6.65;1.60;;;14.80;81.30;;;;;;5052766;28;20025;-76
2021/11/01 23:56:06;;;;;;;4.60;1.50;;;14.80;81.30;;;;;;5052564;28;20091;-76
2021/11/01 23:58:33;;;;;;;4.18;1.60;;;14.80;81.20;;;;;;5052738;28;20462;-76
